Time;durP1;ratioP1;P1;durP2;ratioP2;P2;SDS_P1;SDS_P2;PMS_P1;PMS_P2;Temp;Humidity;BMP_temperature;BMP_pressure;BME280_temperature;BME280_humidity;BME280_pressure;Samples;Min_cycle;Max_cycle;Signal;HPM_P1;HPM_P2
2022/12/12 00:02:20;;;;;;;;;;;26.30;99.90;;;;;;5086785;28;19996;-72
2022/12/12 00:04:46;;;;;;;;;;;26.10;99.90;;;;;;5088279;28;20366;-72
2022/12/12 00:07:13;;;;;;;;;;;26.10;99.90;;;;;;5086799;28;19999;-71
2022/12/12 00:09:40;;;;;;;;;;;26.10;99.90;;;;;;5076874;28;19951;-71
2022/12/12 00:12:07;;;;;;;;;;;25.90;99.90;;;;;;5072915;28;19981;-72
2022/12/12 00:14:34;;;;;;;;;;;25.80;99.90;;;;;;5081524;28;19956;-71
2022/12/12 00:17:01;;;;;;;;;;;25.60;99.90;;;;;;5086354;28;19916;-72
2022/12/12 00:19:27;;;;;;;;;;;25.40;99.90;;;;;;5088762;28;19916;-71
2022/12/12 00:21:54;;;;;;;;;;;25.20;99.90;;;;;;5074238;28;19978;-72
2022/12/12 00:24:21;;;;;;;;;;;24.90;99.90;;;;;;5076582;28;19912;-70
2022/12/12 00:26:47;;;;;;;;;;;24.60;99.90;;;;;;5078237;28;19916;-73
2022/12/12 00:29:14;;;;;;;;;;;24.40;99.90;;;;;;5084843;28;20003;-72
2022/12/12 00:31:41;;;;;;;;;;;24.20;99.90;;;;;;5081726;28;20362;-74
2022/12/12 00:34:07;;;;;;;;;;;24.00;99.90;;;;;;5078569;28;20290;-73
2022/12/12 00:36:34;;;;;;;;;;;23.90;99.90;;;;;;5084042;28;19926;-73
2022/12/12 00:39:01;;;;;;;;;;;23.80;99.30;;;;;;5072645;28;19916;-74
2022/12/12 00:41:28;;;;;;;;;;;23.80;96.80;;;;;;5075876;28;19917;-73
2022/12/12 00:43:54;;;;;;;;;;;23.80;97.20;;;;;;5087042;28;20458;-73
2022/12/12 00:46:22;;;;;;;;;;;23.80;98.10;;;;;;5078591;28;19919;-72
2022/12/12 00:48:49;;;;;;;;;;;23.70;96.90;;;;;;5081676;28;19916;-73
2022/12/12 00:51:17;;;;;;;;;;;23.60;97.10;;;;;;5088418;28;19966;-72
2022/12/12 00:53:44;;;;;;;;;;;23.60;97.30;;;;;;5079242;28;19912;-72
2022/12/12 00:56:11;;;;;;;;;;;23.50;97.80;;;;;;5080442;28;19916;-72
2022/12/12 00:58:37;;;;;;;;;;;23.40;97.80;;;;;;5080437;28;19947;-70
2022/12/12 01:01:13;;;;;;;;;;;23.30;98.30;;;;;;5079304;28;20366;-72
2022/12/12 01:03:41;;;;;;;;;;;23.20;99.40;;;;;;5079185;28;20386;-72
2022/12/12 01:06:08;;;;;;;;;;;23.20;99.60;;;;;;5086139;28;20011;-72
2022/12/12 01:08:35;;;;;;;;;;;23.30;99.90;;;;;;5084564;28;19935;-72
2022/12/12 01:11:02;;;;;;;;;;;23.40;99.50;;;;;;5085344;28;20320;-72
2022/12/12 01:13:29;;;;;;;;;;;23.50;99.70;;;;;;5090933;28;19912;-71
2022/12/12 01:15:56;;;;;;;;;;;23.70;98.20;;;;;;5083692;28;19923;-72
2022/12/12 01:18:22;;;;;;;;;;;24.00;99.00;;;;;;5080841;28;21156;-72
2022/12/12 01:20:49;;;;;;;;;;;24.10;98.20;;;;;;5081148;28;19912;-72
2022/12/12 01:23:16;;;;;;;;;;;24.20;98.10;;;;;;5086955;28;19924;-71
2022/12/12 01:25:43;;;;;;;;;;;24.20;98.20;;;;;;5083537;28;19920;-72
2022/12/12 01:28:09;;;;;;;;;;;24.10;97.50;;;;;;5080521;28;20301;-72
2022/12/12 01:30:36;;;;;;;;;;;24.20;97.30;;;;;;5111708;27;19964;-71
2022/12/12 01:33:03;;;;;;;;;;;24.20;98.00;;;;;;5089669;28;19916;-71
2022/12/12 01:35:31;;;;;;;;;;;24.20;97.20;;;;;;5080729;28;19925;-72
2022/12/12 01:37:57;;;;;;;;;;;24.20;97.40;;;;;;5087160;28;19916;-73
2022/12/12 01:40:25;;;;;;;;;;;24.30;97.90;;;;;;5091965;28;20304;-72
2022/12/12 01:42:53;;;;;;;;;;;24.80;98.20;;;;;;5084012;28;19920;-72
2022/12/12 01:45:38;;;;;;;;;;;25.10;97.40;;;;;;5082812;28;19920;-72
2022/12/12 01:48:05;;;;;;;;;;;25.70;96.20;;;;;;5078389;28;19913;-71
2022/12/12 01:50:32;;;;;;;;;;;25.90;95.70;;;;;;5078189;28;19923;-70
2022/12/12 01:52:58;;;;;;;;;;;26.10;96.10;;;;;;5088742;28;20422;-72
2022/12/12 01:55:25;;;;;;;;;;;26.20;95.70;;;;;;5081867;28;20378;-73
2022/12/12 01:57:54;;;;;;;;;;;26.10;95.10;;;;;;5086940;28;19920;-71
2022/12/12 02:00:21;;;;;;;;;;;26.10;96.10;;;;;;5086642;28;19986;-71
2022/12/12 02:02:47;;;;;;;;;;;26.10;96.50;;;;;;5090571;28;20377;-73
2022/12/12 02:05:34;;;;;;;;;;;26.70;97.30;;;;;;5087967;28;19916;-72
2022/12/12 02:08:02;;;;;;;;;;;27.30;96.00;;;;;;5074803;28;19919;-73
2022/12/12 02:10:29;;;;;;;;;;;27.70;94.30;;;;;;5086468;28;20374;-76
2022/12/12 02:12:59;;;;;;;;;;;27.40;94.00;;;;;;5088020;28;20277;-74
2022/12/12 02:15:29;;;;;;;;;;;27.00;93.70;;;;;;5082310;28;19925;-74
2022/12/12 02:18:13;;;;;;;;;;;26.70;94.10;;;;;;5075373;28;20371;-73
2022/12/12 02:20:44;;;;;;;;;;;26.70;94.60;;;;;;5077808;28;20011;-74
2022/12/12 02:23:34;;;;;;;;;;;26.70;94.70;;;;;;5075888;28;19924;-76
2022/12/12 02:26:00;;;;;;;;;;;27.00;92.70;;;;;;5082479;28;19960;-74
2022/12/12 02:28:39;;;;;;;;;;;27.40;92.20;;;;;;5088786;28;19913;-74
2022/12/12 02:31:15;;;;;;;;;;;27.90;91.60;;;;;;5085005;28;19920;-73
2022/12/12 02:33:50;;;;;;;;;;;28.30;90.20;;;;;;5079496;28;19948;-73
2022/12/12 02:36:39;;;;;;;;;;;28.50;90.40;;;;;;5072944;28;20297;-73
2022/12/12 02:39:14;;;;;;;;;;;28.60;90.00;;;;;;5084335;28;19920;-72
2022/12/12 02:41:42;;;;;;;;;;;28.00;87.90;;;;;;5071451;28;19920;-75
2022/12/12 02:44:27;;;;;;;;;;;27.90;89.50;;;;;;5090053;28;19924;-72
2022/12/12 02:47:09;;;;;;;;;;;27.70;89.70;;;;;;5082953;28;19955;-74
2022/12/12 02:49:38;;;;;;;;;;;27.70;87.80;;;;;;5080530;28;20763;-73
2022/12/12 02:52:05;;;;;;;;;;;27.90;83.90;;;;;;5076424;28;19938;-72
2022/12/12 02:54:33;;;;;;;;;;;27.70;84.30;;;;;;5079848;28;20334;-73
2022/12/12 02:57:00;;;;;;;;;;;27.60;85.00;;;;;;5085722;28;20491;-75
2022/12/12 02:59:27;;;;;;;;;;;27.30;83.00;;;;;;5086142;28;19915;-75
2022/12/12 03:01:57;;;;;;;;;;;27.30;82.80;;;;;;5082036;28;19919;-72
2022/12/12 03:07:46;;;;;;;;;;;28.10;81.00;;;;;;5072681;28;20282;-72
2022/12/12 03:10:38;;;;;;;;;;;28.60;79.50;;;;;;5084633;28;20264;-73
2022/12/12 03:13:11;;;;;;;;;;;28.50;79.40;;;;;;5108156;27;20274;-73
2022/12/12 03:15:53;;;;;;;;;;;28.60;79.10;;;;;;5071872;28;19927;-72
2022/12/12 03:18:24;;;;;;;;;;;28.70;80.40;;;;;;5071641;28;19987;-71
2022/12/12 03:21:02;;;;;;;;;;;28.90;79.40;;;;;;5072513;28;19958;-71
2022/12/12 03:23:34;;;;;;;;;;;29.10;79.60;;;;;;5071610;28;19935;-72
2022/12/12 03:26:01;;;;;;;;;;;29.00;78.90;;;;;;5080823;28;20015;-72
2022/12/12 03:28:30;;;;;;;;;;;29.00;80.70;;;;;;5087404;28;19912;-72
2022/12/12 03:30:59;;;;;;;;;;;29.20;81.30;;;;;;5079894;28;19978;-73
2022/12/12 03:33:45;;;;;;;;;;;29.30;79.50;;;;;;5089539;28;19916;-72
2022/12/12 03:36:14;;;;;;;;;;;29.20;80.30;;;;;;5075336;28;20291;-71
2022/12/12 03:38:43;;;;;;;;;;;29.30;79.80;;;;;;5077596;28;19912;-72
2022/12/12 03:41:13;;;;;;;;;;;29.10;78.80;;;;;;5081122;28;19934;-72
2022/12/12 03:43:45;;;;;;;;;;;29.00;79.50;;;;;;5076400;28;19935;-72
2022/12/12 03:46:16;;;;;;;;;;;29.10;79.50;;;;;;5074995;28;19916;-73
2022/12/12 03:49:02;;;;;;;;;;;29.30;79.10;;;;;;5080550;28;19921;-71
2022/12/12 03:51:31;;;;;;;;;;;29.20;77.10;;;;;;5081772;28;19919;-73
2022/12/12 03:54:04;;;;;;;;;;;29.20;77.30;;;;;;5074361;28;19916;-72
2022/12/12 03:56:44;;;;;;;;;;;29.10;77.60;;;;;;5081508;28;19966;-74
2022/12/12 03:59:16;;;;;;;;;;;29.00;77.00;;;;;;5084339;28;19999;-75
2022/12/12 04:01:57;;;;;;;;;;;29.00;77.40;;;;;;5088580;28;19966;-73
2022/12/12 04:04:27;;;;;;;;;;;29.00;76.80;;;;;;5079099;28;19924;-75
2022/12/12 04:06:54;;;;;;;;;;;29.10;77.80;;;;;;5091971;28;20365;-73
2022/12/12 04:15:19;;;;;;;;;;;29.00;77.20;;;;;;5077824;28;20266;-75
2022/12/12 04:17:57;;;;;;;;;;;29.30;76.30;;;;;;5071879;28;19961;-73
2022/12/12 04:23:29;;;;;;;;;;;29.00;77.40;;;;;;5073135;28;19932;-77
2022/12/12 04:28:43;;;;;;;;;;;28.40;78.10;;;;;;5075673;28;19977;-71
2022/12/12 04:31:10;;;;;;;;;;;28.30;77.40;;;;;;5071472;28;19917;-78
2022/12/12 04:33:41;;;;;;;;;;;28.60;77.50;;;;;;5075408;28;20052;-75
2022/12/12 04:36:09;;;;;;;;;;;28.60;77.40;;;;;;5074691;28;19920;-76
2022/12/12 04:38:36;;;;;;;;;;;28.10;77.60;;;;;;5075108;28;19978;-74
2022/12/12 04:41:04;;;;;;;;;;;28.00;77.90;;;;;;5081368;28;19912;-75
2022/12/12 04:43:37;;;;;;;;;;;27.80;77.60;;;;;;5091429;28;19928;-80
2022/12/12 04:46:09;;;;;;;;;;;27.60;78.10;;;;;;5075372;28;20332;-74
2022/12/12 04:48:47;;;;;;;;;;;27.40;79.00;;;;;;5085485;28;19920;-72
2022/12/12 04:51:15;;;;;;;;;;;27.30;78.40;;;;;;5083220;28;19912;-74
2022/12/12 04:53:46;;;;;;;;;;;27.30;77.90;;;;;;5078477;28;19927;-75
2022/12/12 04:56:15;;;;;;;;;;;27.40;77.00;;;;;;5079011;28;19912;-74
2022/12/12 04:58:42;;;;;;;;;;;27.90;77.30;;;;;;5077274;28;20306;-77
2022/12/12 05:01:10;;;;;;;;;;;28.30;74.70;;;;;;5076209;28;19913;-77
2022/12/12 05:03:43;;;;;;;;;;;28.50;75.20;;;;;;5076371;28;20027;-78
2022/12/12 05:06:11;;;;;;;;;;;28.40;76.60;;;;;;5086455;28;20004;-77
2022/12/12 05:08:40;;;;;;;;;;;28.60;75.50;;;;;;5087845;28;20032;-78
2022/12/12 05:11:07;;;;;;;;;;;28.40;73.50;;;;;;5087028;28;19924;-73
2022/12/12 05:13:38;;;;;;;;;;;28.10;73.10;;;;;;5077142;28;19934;-72
2022/12/12 05:16:17;;;;;;;;;;;28.10;73.20;;;;;;5077912;28;19956;-77
2022/12/12 05:18:44;;;;;;;;;;;28.00;72.40;;;;;;5084016;28;20290;-78
2022/12/12 05:21:11;;;;;;;;;;;27.80;73.90;;;;;;5097001;28;20373;-78
2022/12/12 05:23:38;;;;;;;;;;;27.60;72.60;;;;;;5101366;28;20309;-79
2022/12/12 05:26:08;;;;;;;;;;;27.50;73.10;;;;;;5074994;28;19912;-80
2022/12/12 05:28:35;;;;;;;;;;;27.60;71.90;;;;;;5084919;28;20417;-76
2022/12/12 05:31:02;;;;;;;;;;;27.60;71.90;;;;;;5077607;28;19916;-78
2022/12/12 05:33:29;;;;;;;;;;;27.50;69.30;;;;;;5090347;28;20312;-76
2022/12/12 05:35:56;;;;;;;;;;;27.60;69.30;;;;;;5087636;28;19928;-76
2022/12/12 05:38:23;;;;;;;;;;;27.40;69.80;;;;;;5075660;28;19913;-79
2022/12/12 05:40:49;;;;;;;;;;;27.40;69.80;;;;;;5090808;28;20359;-75
2022/12/12 05:43:16;;;;;;;;;;;27.40;70.10;;;;;;5076630;28;20369;-74
2022/12/12 05:45:43;;;;;;;;;;;27.40;70.30;;;;;;5089951;28;19947;-74
2022/12/12 05:48:10;;;;;;;;;;;27.30;69.60;;;;;;5075386;28;19920;-76
2022/12/12 05:50:36;;;;;;;;;;;27.30;68.30;;;;;;5075599;28;19916;-74
2022/12/12 05:53:03;;;;;;;;;;;27.40;67.80;;;;;;5078063;28;19944;-76
2022/12/12 05:55:30;;;;;;;;;;;27.60;67.30;;;;;;5083493;28;19924;-72
2022/12/12 05:57:57;;;;;;;;;;;27.70;67.20;;;;;;5077790;28;19912;-77
2022/12/12 06:00:23;;;;;;;;;;;27.80;67.40;;;;;;5080359;28;20279;-73
2022/12/12 06:02:50;;;;;;;;;;;27.80;67.10;;;;;;5091094;28;20706;-75
2022/12/12 06:05:17;;;;;;;;;;;27.70;66.40;;;;;;5098662;28;20313;-74
2022/12/12 06:07:43;;;;;;;;;;;27.60;67.10;;;;;;5077058;28;20004;-77
2022/12/12 06:10:11;;;;;;;;;;;27.50;65.80;;;;;;5087108;28;20450;-78
2022/12/12 06:12:38;;;;;;;;;;;27.20;65.30;;;;;;5084007;28;20276;-74
2022/12/12 06:15:05;;;;;;;;;;;27.00;65.40;;;;;;5091637;28;19912;-76
2022/12/12 06:17:32;;;;;;;;;;;26.50;65.70;;;;;;5076350;28;20007;-75
2022/12/12 06:19:58;;;;;;;;;;;26.00;66.90;;;;;;5076281;28;19912;-75
2022/12/12 06:22:26;;;;;;;;;;;25.80;67.10;;;;;;5081920;28;19924;-77
2022/12/12 06:24:53;;;;;;;;;;;25.80;67.20;;;;;;5074878;28;19930;-78
2022/12/12 06:27:20;;;;;;;;;;;25.80;67.50;;;;;;5069772;28;20363;-77
2022/12/12 06:29:47;;;;;;;;;;;26.10;68.00;;;;;;5082451;28;19916;-73
2022/12/12 06:32:13;;;;;;;;;;;26.50;67.60;;;;;;5073813;28;20259;-74
2022/12/12 06:34:40;;;;;;;;;;;26.60;66.70;;;;;;5072856;28;20294;-73
2022/12/12 06:37:07;;;;;;;;;;;26.70;67.10;;;;;;5092281;28;19920;-73
2022/12/12 06:39:34;;;;;;;;;;;26.90;65.70;;;;;;5085998;28;20658;-71
2022/12/12 06:42:00;;;;;;;;;;;26.90;64.70;;;;;;5091002;28;19974;-74
2022/12/12 06:44:27;;;;;;;;;;;26.90;65.00;;;;;;5085878;28;19920;-75
2022/12/12 06:46:54;;;;;;;;;;;26.70;64.80;;;;;;5093276;28;19908;-72
2022/12/12 06:49:20;;;;;;;;;;;26.50;64.20;;;;;;5082200;28;19923;-71
2022/12/12 06:51:47;;;;;;;;;;;26.20;63.80;;;;;;5088336;28;20011;-72
2022/12/12 06:54:16;;;;;;;;;;;25.90;64.40;;;;;;5083683;28;20332;-75
2022/12/12 06:56:43;;;;;;;;;;;25.70;64.30;;;;;;5092687;28;19915;-73
2022/12/12 06:59:14;;;;;;;;;;;25.50;64.10;;;;;;5089596;28;19942;-73
2022/12/12 07:01:40;;;;;;;;;;;25.50;64.30;;;;;;5091032;28;19912;-71
2022/12/12 07:04:07;;;;;;;;;;;25.60;64.80;;;;;;5092428;28;19926;-73
2022/12/12 07:06:34;;;;;;;;;;;25.50;63.80;;;;;;5074594;28;19924;-70
2022/12/12 07:09:01;;;;;;;;;;;25.50;64.70;;;;;;5078130;28;19931;-71
2022/12/12 07:11:28;;;;;;;;;;;25.40;65.10;;;;;;5072796;28;19958;-71
2022/12/12 07:13:55;;;;;;;;;;;25.40;64.40;;;;;;5078492;28;19923;-71
2022/12/12 07:16:22;;;;;;;;;;;25.40;62.70;;;;;;5091289;28;20007;-70
2022/12/12 07:18:49;;;;;;;;;;;25.20;62.30;;;;;;5080948;28;20002;-70
2022/12/12 07:21:17;;;;;;;;;;;25.00;62.50;;;;;;5090874;28;19916;-72
2022/12/12 07:23:44;;;;;;;;;;;24.90;62.20;;;;;;5083603;28;19920;-71
2022/12/12 07:26:12;;;;;;;;;;;24.90;61.50;;;;;;5091993;28;19943;-72
2022/12/12 07:28:39;;;;;;;;;;;24.80;61.90;;;;;;5081230;28;19931;-76
2022/12/12 07:31:10;;;;;;;;;;;24.70;62.20;;;;;;5078292;28;19939;-78
2022/12/12 07:33:37;;;;;;;;;;;24.70;62.70;;;;;;5078060;28;19912;-75
2022/12/12 07:36:04;;;;;;;;;;;24.60;62.80;;;;;;5078030;28;20383;-77
2022/12/12 07:38:31;;;;;;;;;;;24.50;62.20;;;;;;5088625;28;19916;-77
2022/12/12 07:41:08;;;;;;;;;;;24.40;62.50;;;;;;5076634;28;20011;-78
2022/12/12 07:43:35;;;;;;;;;;;24.30;62.20;;;;;;5080093;28;19927;-77
2022/12/12 07:46:02;;;;;;;;;;;24.30;61.80;;;;;;5080527;28;20359;-76
2022/12/12 07:48:28;;;;;;;;;;;24.20;61.50;;;;;;5090246;28;19919;-78
2022/12/12 07:50:58;;;;;;;;;;;24.10;62.00;;;;;;5075641;28;19912;-75
2022/12/12 07:53:25;;;;;;;;;;;24.10;62.10;;;;;;5076810;28;19960;-79
2022/12/12 07:55:52;;;;;;;;;;;23.90;61.90;;;;;;5083643;28;20328;-75
2022/12/12 07:58:18;;;;;;;;;;;23.80;62.20;;;;;;5086243;28;20298;-77
2022/12/12 08:00:45;;;;;;;;;;;23.60;62.20;;;;;;5088588;28;20017;-77
2022/12/12 08:03:12;;;;;;;;;;;23.40;62.10;;;;;;5073401;28;19927;-77
2022/12/12 08:05:39;;;;;;;;;;;23.30;62.90;;;;;;5082078;28;19912;-77
2022/12/12 08:08:06;;;;;;;;;;;23.20;62.60;;;;;;5071752;28;19943;-78
2022/12/12 08:10:33;;;;;;;;;;;23.20;61.60;;;;;;5084832;28;20001;-78
2022/12/12 08:13:00;;;;;;;;;;;23.10;62.00;;;;;;5093559;28;19919;-77
2022/12/12 08:15:26;;;;;;;;;;;23.00;62.20;;;;;;5093563;28;19916;-80
2022/12/12 08:17:53;;;;;;;;;;;23.00;62.00;;;;;;5087089;28;19916;-79
2022/12/12 08:20:21;;;;;;;;;;;22.90;62.10;;;;;;5094639;28;19923;-76
2022/12/12 08:22:48;;;;;;;;;;;22.90;62.70;;;;;;5097460;28;19924;-78
2022/12/12 08:25:15;;;;;;;;;;;22.80;62.80;;;;;;5091817;28;19920;-75
2022/12/12 08:27:42;;;;;;;;;;;22.70;62.90;;;;;;5079591;28;19970;-78
2022/12/12 08:30:09;;;;;;;;;;;22.60;63.30;;;;;;5087103;28;19952;-74
2022/12/12 08:32:36;;;;;;;;;;;22.50;63.20;;;;;;5082777;28;19912;-78
2022/12/12 08:35:02;;;;;;;;;;;22.50;63.50;;;;;;5077759;28;20363;-78
2022/12/12 08:37:29;;;;;;;;;;;22.40;63.50;;;;;;5074709;28;20282;-75
2022/12/12 08:39:56;;;;;;;;;;;22.30;63.50;;;;;;5089367;28;19916;-75
2022/12/12 08:42:23;;;;;;;;;;;22.30;63.70;;;;;;5096639;28;20377;-76
2022/12/12 08:44:49;;;;;;;;;;;22.20;63.90;;;;;;5083834;28;19958;-76
2022/12/12 08:47:16;;;;;;;;;;;22.10;64.10;;;;;;5083919;28;19931;-76
2022/12/12 08:49:43;;;;;;;;;;;22.00;64.10;;;;;;5084754;28;19944;-73
2022/12/12 08:52:10;;;;;;;;;;;22.00;63.80;;;;;;5088451;28;20384;-75
2022/12/12 08:54:36;;;;;;;;;;;21.90;64.40;;;;;;5095768;28;19924;-78
2022/12/12 08:57:03;;;;;;;;;;;21.80;64.60;;;;;;5094244;28;19912;-77
2022/12/12 08:59:30;;;;;;;;;;;21.70;64.80;;;;;;5094126;28;19916;-77
2022/12/12 09:01:57;;;;;;;;;;;21.60;65.30;;;;;;5085217;28;19916;-75
2022/12/12 09:04:24;;;;;;;;;;;21.60;64.80;;;;;;5079282;28;20278;-77
2022/12/12 09:06:50;;;;;;;;;;;21.60;65.10;;;;;;5082706;28;19924;-78
2022/12/12 09:09:17;;;;;;;;;;;21.50;64.90;;;;;;5094638;28;19912;-76
2022/12/12 09:11:44;;;;;;;;;;;21.40;64.70;;;;;;5075986;28;19908;-75
2022/12/12 09:14:10;;;;;;;;;;;21.30;64.90;;;;;;5084782;28;19912;-76
2022/12/12 09:16:37;;;;;;;;;;;21.30;65.20;;;;;;5078278;28;19913;-77
2022/12/12 09:19:04;;;;;;;;;;;21.10;65.40;;;;;;5078832;28;19917;-76
2022/12/12 09:21:31;;;;;;;;;;;21.20;65.50;;;;;;5088396;28;19978;-76
2022/12/12 09:23:58;;;;;;;;;;;21.10;65.60;;;;;;5093434;28;20282;-79
2022/12/12 09:26:24;;;;;;;;;;;21.00;65.40;;;;;;5089653;28;19912;-74
2022/12/12 09:28:51;;;;;;;;;;;21.00;65.60;;;;;;5079919;28;19951;-75
2022/12/12 09:31:18;;;;;;;;;;;20.90;66.10;;;;;;5082064;28;19913;-76
2022/12/12 09:33:45;;;;;;;;;;;20.80;66.50;;;;;;5089443;28;19919;-77
2022/12/12 09:36:12;;;;;;;;;;;20.70;66.60;;;;;;5082022;28;20318;-74
2022/12/12 09:38:39;;;;;;;;;;;20.70;66.90;;;;;;5084768;28;19912;-76
2022/12/12 09:41:09;;;;;;;;;;;20.60;66.90;;;;;;5084053;28;20386;-77
2022/12/12 09:43:41;;;;;;;;;;;20.60;67.00;;;;;;5085528;28;19920;-76
2022/12/12 09:46:15;;;;;;;;;;;20.60;67.10;;;;;;5086573;28;20397;-77
2022/12/12 09:48:43;;;;;;;;;;;20.50;67.30;;;;;;5073682;28;19928;-76
2022/12/12 09:51:10;;;;;;;;;;;20.60;67.70;;;;;;5077581;28;19997;-77
2022/12/12 09:53:37;;;;;;;;;;;20.50;68.00;;;;;;5085505;28;19980;-78
2022/12/12 09:56:12;;;;;;;;;;;20.40;68.50;;;;;;5076890;28;19916;-75
2022/12/12 09:58:48;;;;;;;;;;;20.20;68.40;;;;;;5090774;28;19935;-75
2022/12/12 10:01:17;;;;;;;;;;;20.20;68.50;;;;;;5081444;28;19920;-76
2022/12/12 10:03:44;;;;;;;;;;;20.20;68.50;;;;;;5073432;28;19959;-74
2022/12/12 10:06:11;;;;;;;;;;;20.00;69.10;;;;;;5086303;28;19912;-71
2022/12/12 10:08:56;;;;;;;;;;;20.00;69.10;;;;;;5085927;28;20011;-74
2022/12/12 10:14:15;;;;;;;;;;;19.90;69.50;;;;;;5083723;28;19942;-76
2022/12/12 10:16:42;;;;;;;;;;;19.80;69.40;;;;;;5090357;28;19954;-77
2022/12/12 10:19:18;;;;;;;;;;;19.80;69.40;;;;;;5083101;28;20370;-77
2022/12/12 10:21:45;;;;;;;;;;;19.80;69.40;;;;;;5080154;28;19947;-76
2022/12/12 10:24:30;;;;;;;;;;;19.70;69.30;;;;;;5089836;28;19924;-74
2022/12/12 10:26:57;;;;;;;;;;;19.70;68.90;;;;;;5075028;28;20484;-76
2022/12/12 10:29:25;;;;;;;;;;;19.70;69.20;;;;;;5088790;28;20015;-76
2022/12/12 10:32:17;;;;;;;;;;;19.70;69.50;;;;;;5085416;28;20316;-78
2022/12/12 10:35:03;;;;;;;;;;;19.60;69.10;;;;;;5067267;28;19995;-70
2022/12/12 10:37:30;;;;;;;;;;;19.60;69.40;;;;;;5073132;28;19929;-73
2022/12/12 10:40:15;;;;;;;;;;;19.50;69.20;;;;;;5072774;28;20457;-75
2022/12/12 10:42:54;;;;;;;;;;;19.50;69.00;;;;;;5086669;28;20023;-77
2022/12/12 10:45:21;;;;;;;;;;;19.50;69.40;;;;;;5093036;28;20363;-74
2022/12/12 10:47:47;;;;;;;;;;;19.50;69.40;;;;;;5094964;28;20350;-76
2022/12/12 10:50:33;;;;;;;;;;;19.40;69.00;;;;;;5080564;28;19918;-76
2022/12/12 10:53:01;;;;;;;;;;;19.50;69.20;;;;;;5082185;28;20293;-76
2022/12/12 10:55:41;;;;;;;;;;;19.50;69.30;;;;;;5080286;28;19913;-76
2022/12/12 10:58:08;;;;;;;;;;;19.40;68.20;;;;;;5074286;28;20299;-79
2022/12/12 11:00:34;;;;;;;;;;;19.40;69.00;;;;;;5083527;28;20492;-77
2022/12/12 11:03:30;;;;;;;;;;;19.30;69.70;;;;;;5086341;28;19955;-71
2022/12/12 11:05:57;;;;;;;;;;;19.20;69.40;;;;;;5077756;28;19938;-77
2022/12/12 11:08:36;;;;;;;;;;;19.20;69.40;;;;;;5090396;28;19912;-71
2022/12/12 11:11:07;;;;;;;;;;;19.20;69.40;;;;;;5078316;28;19981;-76
2022/12/12 11:13:45;;;;;;;;;;;19.20;68.90;;;;;;5074569;28;20343;-78
2022/12/12 11:16:17;;;;;;;;;;;19.20;69.10;;;;;;5077517;28;20367;-76
2022/12/12 11:19:06;;;;;;;;;;;19.20;69.40;;;;;;5075722;28;19920;-77
2022/12/12 11:21:34;;;;;;;;;;;19.10;69.20;;;;;;5072921;28;19913;-76
2022/12/12 11:24:21;;;;;;;;;;;19.10;69.40;;;;;;5074479;28;19920;-78
2022/12/12 11:27:02;;;;;;;;;;;19.00;69.70;;;;;;5087938;28;19913;-78
2022/12/12 11:30:04;;;;;;;;;;;19.00;69.80;;;;;;5068799;28;20298;-74
2022/12/12 11:32:36;;;;;;;;;;;19.00;69.90;;;;;;5010837;28;19913;-78
2022/12/12 11:35:05;;;;;;;;;;;18.90;70.40;;;;;;5080097;28;20270;-79
2022/12/12 11:37:36;;;;;;;;;;;18.80;70.40;;;;;;5089986;28;20378;-79
2022/12/12 11:40:03;;;;;;;;;;;18.70;70.30;;;;;;5088776;28;20010;-76
2022/12/12 11:42:31;;;;;;;;;;;18.70;70.60;;;;;;5087029;28;19943;-76
2022/12/12 11:44:58;;;;;;;;;;;18.70;70.20;;;;;;5088027;28;19920;-77
2022/12/12 11:47:24;;;;;;;;;;;18.70;69.90;;;;;;5088945;28;19954;-77
2022/12/12 11:49:56;;;;;;;;;;;18.70;70.40;;;;;;5088894;28;20019;-76
2022/12/12 11:52:22;;;;;;;;;;;18.60;70.80;;;;;;5084727;28;20368;-74
2022/12/12 11:54:49;;;;;;;;;;;18.60;70.60;;;;;;5086191;28;20266;-77
2022/12/12 11:57:34;;;;;;;;;;;18.50;70.60;;;;;;5080815;28;19935;-77
2022/12/12 12:00:05;;;;;;;;;;;18.50;70.70;;;;;;5084156;28;20270;-74
2022/12/12 12:02:50;;;;;;;;;;;18.50;71.10;;;;;;5090121;28;19912;-77
2022/12/12 12:05:17;;;;;;;;;;;18.40;71.50;;;;;;5088791;28;19913;-78
2022/12/12 12:08:02;;;;;;;;;;;18.30;71.70;;;;;;5087605;28;19919;-77
2022/12/12 12:10:40;;;;;;;;;;;18.20;71.30;;;;;;5072716;28;19912;-77
2022/12/12 12:13:21;;;;;;;;;;;18.20;72.00;;;;;;5073833;28;19999;-76
2022/12/12 12:15:58;;;;;;;;;;;18.10;71.90;;;;;;5089682;28;20032;-76
2022/12/12 12:18:27;;;;;;;;;;;18.10;72.30;;;;;;5075808;28;20005;-80
2022/12/12 12:21:12;;;;;;;;;;;18.00;72.30;;;;;;5078161;28;19924;-75
2022/12/12 12:23:39;;;;;;;;;;;18.00;72.30;;;;;;5071455;28;20556;-76
2022/12/12 12:26:09;;;;;;;;;;;18.00;72.50;;;;;;5076408;28;20338;-79
2022/12/12 12:28:54;;;;;;;;;;;17.90;72.70;;;;;;5090735;28;20270;-78
2022/12/12 12:31:28;;;;;;;;;;;17.80;72.80;;;;;;5088190;28;19912;-76
2022/12/12 12:33:58;;;;;;;;;;;17.90;72.50;;;;;;5078710;28;19936;-75
2022/12/12 12:36:30;;;;;;;;;;;17.80;72.90;;;;;;5082755;28;19927;-78
2022/12/12 12:39:15;;;;;;;;;;;17.80;72.80;;;;;;5083961;28;19928;-72
2022/12/12 12:42:00;;;;;;;;;;;17.70;72.60;;;;;;5080355;28;20369;-78
2022/12/12 12:44:46;;;;;;;;;;;17.70;73.10;;;;;;5080924;28;19931;-74
2022/12/12 12:47:15;;;;;;;;;;;17.70;73.50;;;;;;5085726;28;19923;-76
2022/12/12 12:49:47;;;;;;;;;;;17.70;73.10;;;;;;5085130;28;19923;-74
2022/12/12 12:52:21;;;;;;;;;;;17.60;73.60;;;;;;5077660;28;20002;-77
2022/12/12 12:54:48;;;;;;;;;;;17.50;74.50;;;;;;5080567;28;19916;-78
2022/12/12 12:57:23;;;;;;;;;;;17.40;74.90;;;;;;5088386;28;20269;-78
2022/12/12 12:59:52;;;;;;;;;;;17.20;74.80;;;;;;5081375;28;19919;-76
2022/12/12 13:02:32;;;;;;;;;;;17.10;75.40;;;;;;5084570;28;19917;-77
2022/12/12 13:05:18;;;;;;;;;;;17.00;76.30;;;;;;5075701;28;19964;-75
2022/12/12 13:07:48;;;;;;;;;;;16.80;76.10;;;;;;5077523;28;19913;-77
2022/12/12 13:10:21;;;;;;;;;;;16.80;76.70;;;;;;5077405;28;19913;-76
2022/12/12 13:13:00;;;;;;;;;;;16.80;76.50;;;;;;5075473;28;19920;-72
2022/12/12 13:15:33;;;;;;;;;;;16.70;76.90;;;;;;5074805;28;19952;-71
2022/12/12 13:18:03;;;;;;;;;;;16.60;77.00;;;;;;5064524;28;19921;-75
2022/12/12 13:20:34;;;;;;;;;;;16.60;76.20;;;;;;5075414;28;19924;-74
2022/12/12 13:23:15;;;;;;;;;;;16.60;75.20;;;;;;5099465;28;19932;-73
2022/12/12 13:25:41;;;;;;;;;;;16.70;74.80;;;;;;5086634;28;20369;-74
2022/12/12 13:28:14;;;;;;;;;;;16.70;74.80;;;;;;5084701;28;19944;-74
2022/12/12 13:30:51;;;;;;;;;;;16.70;75.00;;;;;;5093104;27;20378;-74
2022/12/12 13:33:21;;;;;;;;;;;16.70;74.90;;;;;;5087007;28;19912;-73
2022/12/12 13:35:50;;;;;;;;;;;16.80;75.20;;;;;;5083412;28;20392;-74
2022/12/12 13:38:18;;;;;;;;;;;16.80;74.70;;;;;;5099096;28;19942;-75
2022/12/12 13:40:45;;;;;;;;;;;16.90;74.70;;;;;;5089452;28;20262;-75
2022/12/12 13:43:29;;;;;;;;;;;16.90;74.30;;;;;;5094245;28;19920;-76
2022/12/12 13:45:56;;;;;;;;;;;17.00;73.80;;;;;;5091372;28;19966;-78
2022/12/12 13:48:28;;;;;;;;;;;17.10;74.00;;;;;;5083049;28;19916;-76
2022/12/12 13:51:13;;;;;;;;;;;17.10;73.80;;;;;;5079603;28;19947;-75
2022/12/12 13:53:39;;;;;;;;;;;17.10;73.70;;;;;;5091876;28;19916;-74
2022/12/12 13:56:24;;;;;;;;;;;17.10;73.70;;;;;;5076031;28;19923;-76
2022/12/12 13:58:51;;;;;;;;;;;17.10;73.90;;;;;;5076609;28;19936;-75
2022/12/12 14:01:53;;;;;;;;;;;17.00;74.40;;;;;;5077387;28;19916;-75
2022/12/12 14:04:28;;;;;;;;;;;16.90;74.30;;;;;;5034985;28;20381;-75
2022/12/12 14:07:05;;;;;;;;;;;16.80;75.40;;;;;;5066886;28;20022;-75
2022/12/12 14:09:40;;;;;;;;;;;16.80;75.00;;;;;;5074411;28;20382;-77
2022/12/12 14:12:08;;;;;;;;;;;16.80;74.30;;;;;;5091047;28;20289;-76
2022/12/12 14:14:35;;;;;;;;;;;16.90;74.30;;;;;;5079363;28;19924;-78
2022/12/12 14:17:03;;;;;;;;;;;17.00;73.80;;;;;;5089090;28;20384;-74
2022/12/12 14:19:34;;;;;;;;;;;17.20;73.10;;;;;;5089047;28;20270;-71
2022/12/12 14:22:01;;;;;;;;;;;17.40;73.00;;;;;;5088099;28;19959;-75
2022/12/12 14:24:33;;;;;;;;;;;17.40;72.90;;;;;;5086423;28;20387;-74
2022/12/12 14:27:01;;;;;;;;;;;17.50;72.90;;;;;;5087697;28;20267;-75
2022/12/12 14:29:28;;;;;;;;;;;17.50;72.80;;;;;;5079008;28;20014;-74
2022/12/12 14:32:13;;;;;;;;;;;17.50;72.70;;;;;;5078811;28;20324;-72
2022/12/12 14:34:46;;;;;;;;;;;17.40;73.00;;;;;;5083841;28;20292;-73
2022/12/12 14:37:12;;;;;;;;;;;17.30;73.20;;;;;;5052637;28;19924;-71
2022/12/12 14:39:57;;;;;;;;;;;17.10;73.80;;;;;;5068384;28;19917;-74
2022/12/12 14:42:43;;;;;;;;;;;16.90;74.80;;;;;;5070283;28;19959;-75
2022/12/12 14:45:26;;;;;;;;;;;16.80;74.60;;;;;;5071660;28;20274;-74
2022/12/12 14:48:11;;;;;;;;;;;16.80;74.80;;;;;;5053862;28;19924;-75
2022/12/12 14:50:39;;;;;;;;;;;16.70;75.40;;;;;;5062739;28;19916;-77
2022/12/12 14:53:25;;;;;;;;;;;16.50;76.20;;;;;;5073325;28;19909;-77
2022/12/12 14:55:53;;;;;;;;;;;16.40;76.50;;;;;;5068590;28;19913;-77